KCKP

Cherokee County Regional Airport

Cherokee, Iowa, USA
METAR KCKP 210655Z AUTO 09004KT 3SM BR OVC006 13/13 A3007 RMK AO2 P0001 T01320132
Observed Flight Rules
May-21 @ 06:55 UTC (26 minutes ago) Instrument Flight Rules
Wind Visibility Clouds Conditions
90° at 4 knots 3 miles
  • Overcast at 600' AGL
  • Mist
Temperatures Readings Precipitation
Current 13°C / 55°F
Dewpoint 13°C / 55°F
Humidity 100%
Altimeter 30.07" Hg
Pressure 1018 hPa
Elevation 374
Current Rain 0.01
METAR KCKP 210655Z AUTO 09004KT 3SM BR OVC006 13/13 A3007 RMK AO2 P0001 T01320132
Observed Flight Rules
May-21 @ 06:55 UTC
(26 minutes ago)
IFR
Wind Visibility
90° at 4 knots 3 miles
Clouds
  • Overcast at 600' AGL
Conditions
  • Mist
Temperature Dewpoint
13°C / 55°F 13°C / 55°F
Humidity Altimeter Pressure
100% 30.07" Hg 1018 hPa
Current Rain
0.01